createdAt,value
2022-10-01T00:02:10.627Z,1.00
2022-10-01T00:04:37.891Z,0.30
2022-10-01T00:07:09.319Z,0.65
2022-10-01T00:09:35.716Z,0.68
2022-10-01T00:12:02.906Z,0.60
2022-10-01T00:14:29.461Z,1.02
2022-10-01T00:16:55.882Z,0.60
2022-10-01T00:19:22.890Z,0.60
2022-10-01T00:21:49.589Z,0.52
2022-10-01T00:24:15.999Z,0.57
2022-10-01T00:26:42.896Z,0.80
2022-10-01T00:29:13.020Z,0.60
2022-10-01T00:31:40.169Z,0.68
2022-10-01T00:34:06.727Z,0.82
2022-10-01T00:36:34.053Z,0.68
2022-10-01T00:39:00.925Z,0.40
2022-10-01T00:41:33.578Z,0.52
2022-10-01T00:44:32.390Z,0.50
2022-10-01T00:47:08.354Z,0.43
2022-10-01T00:49:37.832Z,0.50
2022-10-01T00:52:09.632Z,0.65
2022-10-01T00:54:50.815Z,1.42
2022-10-01T00:57:21.802Z,0.70
2022-10-01T00:59:49.922Z,0.60
2022-10-01T01:02:16.401Z,0.40
2022-10-01T01:04:42.935Z,0.50
2022-10-01T01:07:09.863Z,0.80
2022-10-01T01:09:41.811Z,1.05
2022-10-01T01:12:47.453Z,0.50
2022-10-01T01:15:21.586Z,0.52
2022-10-01T01:20:49.907Z,0.30
2022-10-01T01:23:16.236Z,0.47
2022-10-01T01:25:51.795Z,0.73
2022-10-01T01:28:32.048Z,0.40
2022-10-01T01:31:04.665Z,1.10
2022-10-01T01:33:34.830Z,0.75
2022-10-01T01:36:06.887Z,0.60
2022-10-01T01:38:39.103Z,0.55
2022-10-01T01:41:07.848Z,0.45
2022-10-01T01:43:38.434Z,0.73
2022-10-01T01:46:07.594Z,0.60
2022-10-01T01:48:36.748Z,0.77
2022-10-01T01:51:11.124Z,0.73
2022-10-01T01:53:38.130Z,0.70
2022-10-01T01:56:06.122Z,0.70
2022-10-01T01:58:34.168Z,0.60
2022-10-01T02:01:02.272Z,0.77
2022-10-01T02:03:30.640Z,0.63
2022-10-01T02:06:13.855Z,0.38
2022-10-01T02:08:49.774Z,0.50
2022-10-01T02:11:26.973Z,0.50
2022-10-01T02:14:06.624Z,0.70
2022-10-01T02:16:46.675Z,0.82
2022-10-01T02:19:14.029Z,1.73
2022-10-01T02:22:00.319Z,0.75
2022-10-01T02:24:26.631Z,0.50
2022-10-01T02:26:55.811Z,0.60
2022-10-01T02:29:23.772Z,0.82
2022-10-01T02:31:53.436Z,0.43
2022-10-01T02:34:21.719Z,0.68
2022-10-01T02:36:48.970Z,0.43
2022-10-01T02:39:18.250Z,0.40
2022-10-01T02:41:47.990Z,0.38
2022-10-01T02:44:21.310Z,0.57
2022-10-01T02:47:03.894Z,0.50
2022-10-01T02:49:31.207Z,0.55
2022-10-01T02:52:19.235Z,0.60
2022-10-01T02:54:51.802Z,0.40
2022-10-01T02:57:26.947Z,0.40
2022-10-01T03:00:07.636Z,0.40
2022-10-01T03:02:34.205Z,0.32
2022-10-01T03:05:01.982Z,0.60
2022-10-01T03:07:31.165Z,0.50
2022-10-01T03:09:58.013Z,0.60
2022-10-01T03:12:24.404Z,0.60
2022-10-01T03:14:51.127Z,1.08
2022-10-01T03:17:17.965Z,0.40
2022-10-01T03:19:44.408Z,0.30
2022-10-01T03:22:14.064Z,0.55
2022-10-01T03:24:40.559Z,0.47
2022-10-01T03:27:06.972Z,0.38
2022-10-01T03:29:33.399Z,0.40
2022-10-01T03:31:59.919Z,0.70
2022-10-01T03:34:26.396Z,0.30
2022-10-01T03:36:52.831Z,0.60
2022-10-01T03:39:19.500Z,0.50
2022-10-01T03:41:46.139Z,0.52
2022-10-01T03:44:12.787Z,0.40
2022-10-01T03:46:39.230Z,0.60
2022-10-01T03:49:05.632Z,0.30
2022-10-01T03:51:32.455Z,0.57
2022-10-01T03:53:59.223Z,0.47
2022-10-01T03:56:26.149Z,0.28
2022-10-01T03:58:53.625Z,0.45
2022-10-01T04:01:20.484Z,0.65
2022-10-01T04:03:47.179Z,0.50
2022-10-01T04:06:13.835Z,0.40
2022-10-01T04:08:40.315Z,0.30
2022-10-01T04:11:07.603Z,0.30
2022-10-01T04:13:34.824Z,0.30
2022-10-01T04:16:05.209Z,0.80
2022-10-01T04:18:31.678Z,0.30
2022-10-01T04:20:58.215Z,0.60
2022-10-01T04:23:25.396Z,0.50
2022-10-01T04:25:51.766Z,0.40
2022-10-01T04:28:18.315Z,0.80
2022-10-01T04:30:46.328Z,0.60
2022-10-01T04:33:16.794Z,0.35
2022-10-01T04:35:43.579Z,0.40
2022-10-01T04:38:16.851Z,0.60
2022-10-01T04:40:43.793Z,0.50
2022-10-01T04:43:13.251Z,0.40
2022-10-01T04:45:39.880Z,0.40
2022-10-01T04:48:06.279Z,0.65
2022-10-01T04:50:33.144Z,0.85
2022-10-01T04:52:59.625Z,0.70
2022-10-01T04:55:26.179Z,0.40
2022-10-01T04:57:52.618Z,0.55
2022-10-01T05:00:21.971Z,0.43
2022-10-01T05:02:50.002Z,0.70
2022-10-01T05:05:17.997Z,0.30
2022-10-01T05:07:44.638Z,0.40
2022-10-01T05:10:19.685Z,0.30
2022-10-01T05:12:47.237Z,0.38
2022-10-01T05:15:15.383Z,0.30
2022-10-01T05:17:42.050Z,1.13
2022-10-01T05:20:15.538Z,0.30
2022-10-01T05:22:41.907Z,0.90
2022-10-01T05:25:08.638Z,0.43
2022-10-01T05:27:40.402Z,0.52
2022-10-01T05:30:09.187Z,0.30
2022-10-01T05:32:36.365Z,0.30
2022-10-01T05:35:03.967Z,0.40
2022-10-01T05:37:30.352Z,0.63
2022-10-01T05:39:56.727Z,0.98
2022-10-01T05:42:23.106Z,0.70
2022-10-01T05:44:50.044Z,0.70
2022-10-01T05:47:17.380Z,0.90
2022-10-01T05:49:44.491Z,0.93
2022-10-01T05:52:12.136Z,1.00
2022-10-01T05:54:38.730Z,1.23
2022-10-01T05:57:06.115Z,0.80
2022-10-01T05:59:32.548Z,0.70
2022-10-01T06:01:59.116Z,1.17
2022-10-01T06:04:25.655Z,0.75
2022-10-01T06:06:53.503Z,1.17
2022-10-01T06:09:19.908Z,1.02
2022-10-01T06:11:48.867Z,0.98
2022-10-01T06:14:18.906Z,0.98
2022-10-01T06:16:46.896Z,0.70
2022-10-01T06:19:13.463Z,0.80
2022-10-01T06:21:39.839Z,0.80
2022-10-01T06:24:06.270Z,0.60
2022-10-01T06:26:32.690Z,0.80
2022-10-01T06:28:59.075Z,1.02
2022-10-01T06:31:25.519Z,0.85
2022-10-01T06:33:51.963Z,1.30
2022-10-01T06:36:18.364Z,1.00
2022-10-01T06:38:48.424Z,1.58
2022-10-01T06:41:15.320Z,2.33
2022-10-01T06:43:41.692Z,2.58
2022-10-01T06:46:08.541Z,2.95
2022-10-01T06:48:36.596Z,3.17
2022-10-01T06:51:03.586Z,3.20
2022-10-01T06:53:30.091Z,2.95
2022-10-01T06:55:56.897Z,2.92
2022-10-01T06:58:27.966Z,3.25
2022-10-01T07:01:02.075Z,2.97
2022-10-01T07:06:01.455Z,3.30
2022-10-01T07:08:27.931Z,3.22
2022-10-01T07:10:59.547Z,3.85
2022-10-01T07:13:25.952Z,3.70
2022-10-01T07:15:52.333Z,4.05
2022-10-01T07:18:18.755Z,3.15
2022-10-01T07:20:45.141Z,3.30
2022-10-01T07:23:13.495Z,3.28
2022-10-01T07:25:41.502Z,3.30
2022-10-01T07:28:16.310Z,2.80
2022-10-01T07:30:56.652Z,3.75
2022-10-01T07:33:23.166Z,2.80
2022-10-01T07:35:49.538Z,3.40
2022-10-01T07:38:16.599Z,3.45
2022-10-01T07:40:43.179Z,2.40
2022-10-01T07:43:09.569Z,2.53
2022-10-01T07:45:36.007Z,3.72
2022-10-01T07:48:03.154Z,2.97
2022-10-01T07:50:32.685Z,3.90
2022-10-01T07:52:59.916Z,2.95
2022-10-01T07:55:28.103Z,3.20
2022-10-01T07:57:59.509Z,3.10
2022-10-01T08:00:27.374Z,3.03
2022-10-01T08:02:56.052Z,2.92
2022-10-01T08:05:29.002Z,3.13
2022-10-01T08:08:00.434Z,2.88
2022-10-01T08:10:27.850Z,3.25
2022-10-01T08:13:01.337Z,2.55
2022-10-01T08:15:28.774Z,3.60
2022-10-01T08:17:55.232Z,3.00
2022-10-01T08:20:21.602Z,3.13
2022-10-01T08:22:48.038Z,3.85
2022-10-01T08:25:14.483Z,2.92
2022-10-01T08:27:42.049Z,2.78
2022-10-01T08:30:08.890Z,2.92
2022-10-01T08:32:35.295Z,3.60
2022-10-01T08:35:01.682Z,2.72
2022-10-01T08:37:29.283Z,3.05
2022-10-01T08:39:56.588Z,2.80
2022-10-01T08:42:25.890Z,2.30
2022-10-01T08:44:53.091Z,2.20
2022-10-01T08:47:33.767Z,2.95
2022-10-01T08:50:26.023Z,3.00
2022-10-01T08:52:57.725Z,2.75
2022-10-01T08:55:27.826Z,2.75
2022-10-01T08:57:58.802Z,2.30
2022-10-01T09:00:27.274Z,2.53
2022-10-01T09:02:53.970Z,2.22
2022-10-01T09:05:39.343Z,2.10
2022-10-01T09:08:43.791Z,2.55
2022-10-01T09:11:25.432Z,2.58
2022-10-01T09:13:59.724Z,2.42
2022-10-01T09:16:37.537Z,2.22
2022-10-01T09:19:29.764Z,1.80
2022-10-01T09:21:58.977Z,3.13
2022-10-01T09:24:28.391Z,3.42
2022-10-01T09:26:55.250Z,2.45
2022-10-01T09:29:33.830Z,3.38
2022-10-01T09:32:03.365Z,2.45
2022-10-01T09:34:41.011Z,2.95
2022-10-01T09:37:27.607Z,2.58
2022-10-01T09:40:19.862Z,2.33
2022-10-01T09:42:47.518Z,3.55
2022-10-01T09:45:18.670Z,2.85
2022-10-01T09:47:51.330Z,3.90
2022-10-01T09:50:45.022Z,3.47
2022-10-01T09:53:20.037Z,3.40
2022-10-01T09:55:53.527Z,3.45
2022-10-01T09:58:26.678Z,3.88
2022-10-01T10:00:54.650Z,3.58
2022-10-01T10:03:28.424Z,4.13
2022-10-01T10:05:54.977Z,3.35
2022-10-01T10:08:31.154Z,3.15
2022-10-01T10:11:00.631Z,3.60
2022-10-01T10:13:27.081Z,3.53
2022-10-01T10:15:59.540Z,3.58
2022-10-01T10:18:35.266Z,3.97
2022-10-01T10:21:10.787Z,3.80
2022-10-01T10:23:47.510Z,3.90
2022-10-01T10:26:19.510Z,3.15
2022-10-01T10:28:46.696Z,3.30
2022-10-01T10:31:20.223Z,3.80
2022-10-01T10:34:05.576Z,3.50
2022-10-01T10:36:35.691Z,3.38
2022-10-01T10:39:06.187Z,3.28
2022-10-01T10:41:35.591Z,3.90
2022-10-01T10:44:06.428Z,3.45
2022-10-01T10:46:35.432Z,3.90
2022-10-01T10:49:07.996Z,2.45
2022-10-01T10:52:17.509Z,3.47
2022-10-01T10:54:48.525Z,3.28
2022-10-01T10:57:28.732Z,2.85
2022-10-01T11:00:07.643Z,3.63
2022-10-01T11:02:34.121Z,2.28
2022-10-01T11:05:14.828Z,3.17
2022-10-01T11:07:45.082Z,2.13
2022-10-01T11:10:28.180Z,2.75
2022-10-01T11:13:13.475Z,2.45
2022-10-01T11:15:58.340Z,2.00
2022-10-01T11:18:43.705Z,2.00
2022-10-01T11:21:16.031Z,2.17
2022-10-01T11:23:42.399Z,2.53
2022-10-01T11:26:16.466Z,2.08
2022-10-01T11:28:46.005Z,2.28
2022-10-01T11:31:37.573Z,7.32
2022-10-01T11:34:50.256Z,5.28
2022-10-01T11:37:28.536Z,6.88
2022-10-01T11:39:58.419Z,12.27
2022-10-01T11:42:35.478Z,14.18
2022-10-01T11:45:42.276Z,11.23
2022-10-01T11:48:19.203Z,11.90
2022-10-01T11:50:51.696Z,13.25
2022-10-01T11:53:20.887Z,14.70
2022-10-01T11:56:19.178Z,14.35
2022-10-01T11:58:50.832Z,11.82
2022-10-01T12:01:29.274Z,12.65
2022-10-01T12:04:06.812Z,11.80
2022-10-01T12:06:43.396Z,11.55
2022-10-01T12:09:21.702Z,12.25
2022-10-01T12:12:03.705Z,10.77
2022-10-01T12:14:42.981Z,10.63
2022-10-01T12:17:34.971Z,11.27
2022-10-01T12:20:04.584Z,9.05
2022-10-01T12:22:34.590Z,10.65
2022-10-01T12:25:01.555Z,10.05
2022-10-01T12:27:35.810Z,9.38
2022-10-01T12:30:09.927Z,8.60
2022-10-01T12:35:36.171Z,9.48
2022-10-01T12:38:40.765Z,8.13
2022-10-01T12:41:31.561Z,8.63
2022-10-01T12:44:03.927Z,6.70
2022-10-01T12:46:40.095Z,7.85
2022-10-01T12:49:12.663Z,8.27
2022-10-01T12:51:43.998Z,6.93
2022-10-01T12:54:46.356Z,7.32
2022-10-01T12:57:33.020Z,6.18
2022-10-01T13:00:04.972Z,6.75
2022-10-01T13:03:13.045Z,5.10
2022-10-01T13:05:48.402Z,6.35
2022-10-01T13:08:17.673Z,6.63
2022-10-01T13:11:25.343Z,6.05
2022-10-01T13:13:53.596Z,5.05
2022-10-01T13:16:43.794Z,6.03
2022-10-01T13:19:17.956Z,4.57
2022-10-01T13:24:52.814Z,5.40
2022-10-01T13:27:35.797Z,4.85
2022-10-01T13:30:13.705Z,4.03
2022-10-01T13:32:57.784Z,4.95
2022-10-01T13:35:24.416Z,4.38
2022-10-01T13:37:50.950Z,4.97
2022-10-01T13:40:32.119Z,3.90
2022-10-01T13:43:16.217Z,4.65
2022-10-01T13:45:48.464Z,3.65
2022-10-01T13:48:19.340Z,4.13
2022-10-01T13:51:05.121Z,4.55
2022-10-01T13:53:36.208Z,4.35
2022-10-01T13:56:03.657Z,4.00
2022-10-01T13:58:29.961Z,3.63
2022-10-01T14:00:59.194Z,3.40
2022-10-01T14:03:43.521Z,3.78
2022-10-01T14:06:24.398Z,2.95
2022-10-01T14:09:05.428Z,2.83
2022-10-01T14:11:54.419Z,3.25
2022-10-01T14:14:46.317Z,3.45
2022-10-01T14:17:14.099Z,3.45
2022-10-01T14:19:47.132Z,2.58
2022-10-01T14:22:32.520Z,2.50
2022-10-01T14:25:15.444Z,2.47
2022-10-01T14:27:44.586Z,2.83
2022-10-01T14:30:15.899Z,2.50
2022-10-01T14:33:12.855Z,1.95
2022-10-01T14:36:00.922Z,2.45
2022-10-01T14:38:28.421Z,2.10
2022-10-01T14:40:54.875Z,2.67
2022-10-01T14:43:26.683Z,2.95
2022-10-01T14:45:54.943Z,3.00
2022-10-01T14:48:22.938Z,2.47
2022-10-01T14:50:53.230Z,2.95
2022-10-01T14:53:22.871Z,2.40
2022-10-01T14:55:53.723Z,2.58
2022-10-01T14:58:26.340Z,2.30
2022-10-01T15:00:55.192Z,1.90
2022-10-01T15:03:21.725Z,1.95
2022-10-01T15:05:49.708Z,3.83
2022-10-01T15:08:16.125Z,5.53
2022-10-01T15:11:08.062Z,11.02
2022-10-01T15:13:41.890Z,11.45
2022-10-01T15:16:14.032Z,14.45
2022-10-01T15:19:09.283Z,12.88
2022-10-01T15:21:45.356Z,13.52
2022-10-01T15:24:36.188Z,13.63
2022-10-01T15:27:02.831Z,14.25
2022-10-01T15:29:29.297Z,15.10
2022-10-01T15:31:57.644Z,15.55
2022-10-01T15:34:25.771Z,14.30
2022-10-01T15:36:53.660Z,14.00
2022-10-01T15:39:40.145Z,15.20
2022-10-01T15:42:31.599Z,16.73
2022-10-01T15:45:07.166Z,15.88
2022-10-01T15:47:49.289Z,14.77
2022-10-01T15:50:38.046Z,14.05
2022-10-01T15:53:19.569Z,14.43
2022-10-01T15:55:49.462Z,15.50
2022-10-01T15:58:19.515Z,14.10
2022-10-01T16:01:21.522Z,12.82
2022-10-01T16:03:56.107Z,12.43
2022-10-01T16:06:27.123Z,12.13
2022-10-01T16:09:05.521Z,13.30
2022-10-01T16:11:51.119Z,11.73
2022-10-01T16:14:28.199Z,10.57
2022-10-01T16:17:19.628Z,10.43
2022-10-01T16:19:52.233Z,13.63
2022-10-01T16:22:33.644Z,10.52
2022-10-01T16:25:07.448Z,10.30
2022-10-01T16:27:42.978Z,10.80
2022-10-01T16:30:11.996Z,11.25
2022-10-01T16:32:38.429Z,11.43
2022-10-01T16:35:25.432Z,10.63
2022-10-01T16:37:54.834Z,9.82
2022-10-01T16:40:25.295Z,11.32
2022-10-01T16:42:52.722Z,9.43
2022-10-01T16:45:24.948Z,9.45
2022-10-01T16:47:52.678Z,10.30
2022-10-01T16:50:23.895Z,7.88
2022-10-01T16:52:55.598Z,8.73
2022-10-01T16:55:24.526Z,8.52
2022-10-01T16:57:57.249Z,8.80
2022-10-01T17:00:26.747Z,7.75
2022-10-01T17:02:54.123Z,6.20
2022-10-01T17:05:35.550Z,8.13
2022-10-01T17:08:04.357Z,6.20
2022-10-01T17:10:35.839Z,6.53
2022-10-01T17:13:03.557Z,6.88
2022-10-01T17:15:30.738Z,7.07
2022-10-01T17:17:58.444Z,5.72
2022-10-01T17:20:28.418Z,6.03
2022-10-01T17:22:56.544Z,6.20
2022-10-01T17:25:30.999Z,6.70
2022-10-01T17:27:58.728Z,5.43
2022-10-01T17:30:25.385Z,5.10
2022-10-01T17:32:51.986Z,5.13
2022-10-01T17:35:18.391Z,5.72
2022-10-01T17:37:44.791Z,5.50
2022-10-01T17:40:11.347Z,5.78
2022-10-01T17:42:38.131Z,5.47
2022-10-01T17:45:07.393Z,5.85
2022-10-01T17:47:34.085Z,4.95
2022-10-01T17:50:00.653Z,6.20
2022-10-01T17:52:30.050Z,5.00
2022-10-01T17:54:56.435Z,5.13
2022-10-01T17:57:23.210Z,4.63
2022-10-01T17:59:49.579Z,5.15
2022-10-01T18:02:40.008Z,4.95
2022-10-01T18:05:04.125Z,3.88
2022-10-01T18:07:30.516Z,4.03
2022-10-01T18:09:56.870Z,4.45
2022-10-01T18:12:23.238Z,3.40
2022-10-01T18:14:49.810Z,4.97
2022-10-01T18:17:16.227Z,4.30
2022-10-01T18:19:57.862Z,4.43
2022-10-01T18:22:24.439Z,4.35
2022-10-01T18:24:50.853Z,3.97
2022-10-01T18:27:17.594Z,3.63
2022-10-01T18:29:43.985Z,3.22
2022-10-01T18:32:18.698Z,4.43
2022-10-01T18:34:47.408Z,4.07
2022-10-01T18:37:25.858Z,3.70
2022-10-01T18:40:13.143Z,3.10
2022-10-01T18:42:49.353Z,4.03
2022-10-01T18:45:24.372Z,3.67
2022-10-01T18:48:03.793Z,3.08
2022-10-01T18:50:59.718Z,4.10
2022-10-01T18:53:48.190Z,3.70
2022-10-01T18:56:29.418Z,3.05
2022-10-01T18:59:14.071Z,2.88
2022-10-01T19:01:50.265Z,3.20
2022-10-01T19:05:05.006Z,2.92
2022-10-01T19:07:52.583Z,3.23
2022-10-01T19:10:22.263Z,3.03
2022-10-01T19:13:13.718Z,3.10
2022-10-01T19:16:02.205Z,2.90
2022-10-01T19:18:51.830Z,2.90
2022-10-01T19:21:45.808Z,2.88
2022-10-01T19:24:30.691Z,2.40
2022-10-01T19:27:13.568Z,2.92
2022-10-01T19:30:03.262Z,3.38
2022-10-01T19:32:52.759Z,2.35
2022-10-01T19:35:39.466Z,2.03
2022-10-01T19:38:14.707Z,2.95
2022-10-01T19:40:46.213Z,2.40
2022-10-01T19:43:26.218Z,2.40
2022-10-01T19:46:16.509Z,2.08
2022-10-01T19:48:48.963Z,2.42
2022-10-01T19:51:20.135Z,2.65
2022-10-01T19:53:50.684Z,2.20
2022-10-01T19:56:22.996Z,2.40
2022-10-01T19:58:49.410Z,2.08
2022-10-01T20:01:20.554Z,1.65
2022-10-01T20:03:57.258Z,1.90
2022-10-01T20:06:37.262Z,1.65
2022-10-01T20:09:17.094Z,2.30
2022-10-01T20:11:54.721Z,2.88
2022-10-01T20:14:51.148Z,1.20
2022-10-01T20:17:32.670Z,1.92
2022-10-01T20:20:17.059Z,1.63
2022-10-01T20:23:19.493Z,1.35
2022-10-01T20:25:53.568Z,1.55
2022-10-01T20:28:30.385Z,1.65
2022-10-01T20:31:08.734Z,1.77
2022-10-01T20:34:01.484Z,1.52
2022-10-01T20:36:41.647Z,1.30
2022-10-01T20:39:27.969Z,1.48
2022-10-01T20:41:56.191Z,1.63
2022-10-01T20:44:27.880Z,1.67
2022-10-01T20:47:00.030Z,1.60
2022-10-01T20:49:51.310Z,1.70
2022-10-01T20:52:31.687Z,1.67
2022-10-01T20:55:06.571Z,1.20
2022-10-01T20:57:42.002Z,1.83
2022-10-01T21:00:19.364Z,1.88
2022-10-01T21:02:51.129Z,1.27
2022-10-01T21:05:34.294Z,1.67
2022-10-01T21:08:11.031Z,1.73
2022-10-01T21:10:46.469Z,1.65
2022-10-01T21:13:53.923Z,1.48
2022-10-01T21:16:27.956Z,0.90
2022-10-01T21:21:35.223Z,1.55
2022-10-01T21:24:27.009Z,1.73
2022-10-01T21:27:05.575Z,1.20
2022-10-01T21:29:47.346Z,0.80
2022-10-01T21:32:44.506Z,1.48
2022-10-01T21:35:44.626Z,1.23
2022-10-01T21:38:28.529Z,1.35
2022-10-01T21:41:14.207Z,0.98
2022-10-01T21:43:57.487Z,1.30
2022-10-01T21:46:42.496Z,1.02
2022-10-01T21:49:24.897Z,1.30
2022-10-01T21:52:04.523Z,0.80
2022-10-01T21:54:54.831Z,1.45
2022-10-01T21:57:55.408Z,0.98
2022-10-01T22:00:26.815Z,1.25
2022-10-01T22:03:41.068Z,1.10
2022-10-01T22:06:28.901Z,1.00
2022-10-01T22:08:55.234Z,1.50
2022-10-01T22:11:29.693Z,0.93
2022-10-01T22:14:01.390Z,0.90
2022-10-01T22:16:40.807Z,1.13
2022-10-01T22:19:13.758Z,0.90
2022-10-01T22:21:49.783Z,1.40
2022-10-01T22:24:19.187Z,1.23
2022-10-01T22:26:53.779Z,1.05
2022-10-01T22:29:27.560Z,1.20
2022-10-01T22:31:58.921Z,0.98
2022-10-01T22:34:34.818Z,0.82
2022-10-01T22:37:25.604Z,0.98
2022-10-01T22:40:01.903Z,1.08
2022-10-01T22:42:36.994Z,0.77
2022-10-01T22:45:13.622Z,1.15
2022-10-01T22:48:08.232Z,1.23
2022-10-01T22:51:04.300Z,0.95
2022-10-01T22:53:41.940Z,0.88
2022-10-01T22:56:13.699Z,0.70
2022-10-01T22:59:04.392Z,0.90
2022-10-01T23:01:49.075Z,0.50
2022-10-01T23:04:28.438Z,0.90
2022-10-01T23:07:17.723Z,0.93
2022-10-01T23:09:58.286Z,0.65
2022-10-01T23:12:30.724Z,0.70
2022-10-01T23:15:13.594Z,0.88
2022-10-01T23:18:06.948Z,0.70
2022-10-01T23:20:54.795Z,0.77
2022-10-01T23:23:32.181Z,0.40
2022-10-01T23:26:19.160Z,1.08
2022-10-01T23:28:48.214Z,0.60
2022-10-01T23:31:32.892Z,1.00
2022-10-01T23:34:15.297Z,0.70
2022-10-01T23:36:52.495Z,0.43
2022-10-01T23:39:30.984Z,0.47
2022-10-01T23:42:15.726Z,0.45
2022-10-01T23:45:00.279Z,0.52
2022-10-01T23:47:35.087Z,0.57
2022-10-01T23:50:03.567Z,0.60
2022-10-01T23:52:45.277Z,0.52
2022-10-01T23:55:36.273Z,0.50
2022-10-01T23:58:07.765Z,0.65
